createdAt,value
2022-12-03T00:01:34.003Z,15.07
2022-12-03T00:04:02.080Z,14.57
2022-12-03T00:06:34.339Z,16.53
2022-12-03T00:09:02.708Z,15.93
2022-12-03T00:11:30.574Z,17.17
2022-12-03T00:13:58.482Z,14.80
2022-12-03T00:16:26.419Z,16.53
2022-12-03T00:18:55.710Z,15.30
2022-12-03T00:21:24.800Z,15.00
2022-12-03T00:23:52.908Z,16.50
2022-12-03T00:26:20.832Z,15.53
2022-12-03T00:28:48.711Z,12.93
2022-12-03T00:31:16.629Z,14.90
2022-12-03T00:33:44.796Z,14.77
2022-12-03T00:36:14.026Z,19.07
2022-12-03T00:38:41.935Z,15.73
2022-12-03T00:41:09.825Z,15.23
2022-12-03T00:43:37.714Z,12.70
2022-12-03T00:46:05.789Z,14.70
2022-12-03T00:48:33.786Z,17.70
2022-12-03T00:51:01.651Z,11.70
2022-12-03T00:53:30.883Z,12.77
2022-12-03T00:55:58.972Z,11.90
2022-12-03T00:58:26.841Z,15.13
2022-12-03T01:00:54.729Z,12.90
2022-12-03T01:03:22.644Z,15.37
2022-12-03T01:05:50.514Z,12.63
2022-12-03T01:08:18.395Z,17.57
2022-12-03T01:10:47.600Z,12.57
2022-12-03T01:13:15.523Z,13.73
2022-12-03T01:15:43.503Z,15.87
2022-12-03T01:18:11.528Z,13.20
2022-12-03T01:20:39.551Z,14.83
2022-12-03T01:23:07.449Z,14.80
2022-12-03T01:25:35.442Z,13.50
2022-12-03T01:28:04.802Z,14.93
2022-12-03T01:30:52.959Z,13.20
2022-12-03T01:33:19.890Z,13.50
2022-12-03T01:35:47.744Z,13.07
2022-12-03T01:38:15.601Z,14.10
2022-12-03T01:40:43.523Z,12.53
2022-12-03T01:43:12.787Z,12.03
2022-12-03T01:45:40.668Z,12.20
2022-12-03T01:48:12.003Z,13.90
2022-12-03T01:50:39.870Z,12.30
2022-12-03T01:53:07.739Z,13.53
2022-12-03T01:55:35.622Z,14.30
2022-12-03T01:58:04.095Z,10.13
2022-12-03T02:00:33.775Z,14.93
2022-12-03T02:03:03.527Z,13.10
2022-12-03T02:05:33.296Z,14.23
2022-12-03T02:08:02.016Z,14.60
2022-12-03T02:10:33.442Z,13.33
2022-12-03T02:13:04.475Z,13.43
2022-12-03T02:15:33.808Z,11.93
2022-12-03T02:18:02.236Z,13.50
2022-12-03T02:20:34.134Z,12.70
2022-12-03T02:23:08.348Z,13.40
2022-12-03T02:25:38.803Z,11.10
2022-12-03T02:28:09.105Z,13.17
2022-12-03T02:30:37.481Z,11.40
2022-12-03T02:33:05.660Z,9.70
2022-12-03T02:35:36.027Z,12.53
2022-12-03T02:38:13.154Z,11.53
2022-12-03T02:40:44.304Z,12.20
2022-12-03T02:43:14.752Z,12.13
2022-12-03T02:45:44.491Z,11.17
2022-12-03T02:48:15.892Z,13.10
2022-12-03T02:50:47.265Z,10.43
2022-12-03T02:53:22.264Z,12.00
2022-12-03T02:55:52.954Z,13.30
2022-12-03T02:58:21.792Z,11.90
2022-12-03T03:00:50.633Z,13.30
2022-12-03T03:03:19.862Z,14.30
2022-12-03T03:05:48.786Z,11.77
2022-12-03T03:08:18.216Z,11.37
2022-12-03T03:10:48.385Z,12.83
2022-12-03T03:13:20.086Z,12.47
2022-12-03T03:15:48.479Z,12.97
2022-12-03T03:18:17.442Z,15.43
2022-12-03T03:20:45.993Z,11.10
2022-12-03T03:23:17.627Z,10.83
2022-12-03T03:25:48.713Z,11.97
2022-12-03T03:28:18.508Z,12.43
2022-12-03T03:30:46.629Z,12.60
2022-12-03T03:33:16.080Z,11.73
2022-12-03T03:35:45.738Z,13.77
2022-12-03T03:38:14.265Z,13.00
2022-12-03T03:40:42.287Z,11.73
2022-12-03T03:43:11.432Z,13.13
2022-12-03T03:45:40.785Z,13.30
2022-12-03T03:48:08.795Z,11.70
2022-12-03T03:50:37.010Z,12.70
2022-12-03T03:53:05.884Z,16.33
2022-12-03T03:55:34.735Z,17.93
2022-12-03T03:58:02.761Z,13.93
2022-12-03T04:00:31.464Z,17.20
2022-12-03T04:03:00.707Z,14.87
2022-12-03T04:05:29.476Z,13.10
2022-12-03T04:07:58.746Z,16.90
2022-12-03T04:10:44.364Z,14.83
2022-12-03T04:13:12.247Z,16.30
2022-12-03T04:15:40.097Z,12.70
2022-12-03T04:18:26.996Z,18.80
2022-12-03T04:21:14.884Z,15.80
2022-12-03T04:23:41.772Z,15.70
2022-12-03T04:26:27.224Z,15.93
2022-12-03T04:28:55.185Z,15.83
2022-12-03T04:31:40.339Z,13.70
2022-12-03T04:34:27.619Z,13.80
2022-12-03T04:36:55.483Z,18.53
2022-12-03T04:39:23.384Z,17.80
2022-12-03T04:41:51.326Z,18.07
2022-12-03T04:44:35.743Z,13.00
2022-12-03T04:47:06.156Z,15.57
2022-12-03T04:49:35.975Z,14.40
2022-12-03T04:52:03.901Z,14.07
2022-12-03T04:54:31.912Z,15.03
2022-12-03T04:56:59.789Z,13.97
2022-12-03T04:59:27.663Z,17.47
2022-12-03T05:01:55.613Z,13.10
2022-12-03T05:04:23.851Z,15.60
2022-12-03T05:06:53.094Z,18.07
2022-12-03T05:09:21.038Z,16.40
2022-12-03T05:11:49.056Z,22.70
2022-12-03T05:14:16.938Z,25.33
2022-12-03T05:16:44.881Z,20.97
2022-12-03T05:19:12.819Z,15.80
2022-12-03T05:21:39.725Z,15.40
2022-12-03T05:24:09.151Z,16.20
2022-12-03T05:26:37.042Z,13.93
2022-12-03T05:29:04.974Z,13.83
2022-12-03T05:31:32.874Z,17.40
2022-12-03T05:34:00.736Z,16.60
2022-12-03T05:36:28.588Z,14.87
2022-12-03T05:38:56.460Z,13.37
2022-12-03T05:41:42.980Z,16.37
2022-12-03T05:44:10.847Z,18.67
2022-12-03T05:46:38.774Z,12.93
2022-12-03T05:49:06.752Z,13.60
2022-12-03T05:51:34.639Z,15.63
2022-12-03T05:54:02.500Z,13.00
2022-12-03T05:56:31.713Z,14.73
2022-12-03T05:58:59.555Z,14.73
2022-12-03T06:01:27.414Z,15.00
2022-12-03T06:03:55.337Z,11.33
2022-12-03T06:06:23.273Z,17.50
2022-12-03T06:08:51.151Z,16.00
2022-12-03T06:11:19.096Z,13.80
2022-12-03T06:13:48.325Z,15.13
2022-12-03T06:16:16.240Z,13.27
2022-12-03T06:18:44.188Z,16.53
2022-12-03T06:21:12.042Z,15.17
2022-12-03T06:23:44.498Z,12.87
2022-12-03T06:26:12.485Z,14.40
2022-12-03T06:28:40.387Z,13.17
2022-12-03T06:31:09.636Z,12.70
2022-12-03T06:33:37.549Z,13.07
2022-12-03T06:36:05.940Z,13.93
2022-12-03T06:38:33.849Z,11.83
2022-12-03T06:41:01.710Z,13.50
2022-12-03T06:43:30.929Z,13.70
2022-12-03T06:45:58.960Z,13.97
2022-12-03T06:48:28.269Z,14.10
2022-12-03T06:50:56.132Z,11.43
2022-12-03T06:53:24.013Z,11.77
2022-12-03T06:55:51.898Z,15.40
2022-12-03T06:58:19.755Z,13.97
2022-12-03T07:00:47.616Z,12.40
2022-12-03T07:03:15.625Z,14.00
2022-12-03T07:05:44.913Z,12.50
2022-12-03T07:08:12.905Z,14.03
2022-12-03T07:10:40.910Z,12.00
2022-12-03T07:13:08.784Z,12.60
2022-12-03T07:15:36.706Z,12.00
2022-12-03T07:18:04.598Z,13.13
2022-12-03T07:20:32.453Z,13.77
2022-12-03T07:23:01.651Z,14.93
2022-12-03T07:25:29.875Z,14.03
2022-12-03T07:27:57.743Z,14.67
2022-12-03T07:30:25.700Z,11.70
2022-12-03T07:32:53.578Z,16.10
2022-12-03T07:35:21.620Z,12.53
2022-12-03T07:37:49.480Z,13.90
2022-12-03T07:40:18.903Z,13.00
2022-12-03T07:42:46.938Z,13.57
2022-12-03T07:45:14.847Z,13.13
2022-12-03T07:47:42.720Z,13.43
2022-12-03T07:50:11.593Z,15.40
2022-12-03T07:52:39.457Z,14.37
2022-12-03T07:55:08.350Z,16.23
2022-12-03T07:57:37.585Z,14.30
2022-12-03T08:00:07.000Z,14.90
2022-12-03T08:02:34.959Z,12.80
2022-12-03T08:05:02.937Z,20.10
2022-12-03T08:07:30.843Z,23.80
2022-12-03T08:09:58.790Z,14.33
2022-12-03T08:12:39.884Z,13.80
2022-12-03T08:15:15.401Z,12.07
2022-12-03T08:17:43.782Z,15.20
2022-12-03T08:20:16.211Z,16.67
2022-12-03T08:22:45.855Z,15.03
2022-12-03T08:25:22.096Z,14.67
2022-12-03T08:27:50.097Z,15.93
2022-12-03T08:30:20.081Z,16.10
2022-12-03T08:32:48.910Z,13.97
2022-12-03T08:35:22.777Z,15.43
2022-12-03T08:37:56.748Z,14.80
2022-12-03T08:40:28.991Z,14.90
2022-12-03T08:42:56.866Z,17.10
2022-12-03T08:45:40.620Z,16.33
2022-12-03T08:48:29.883Z,17.20
2022-12-03T08:51:00.132Z,19.83
2022-12-03T08:53:34.195Z,16.33
2022-12-03T08:56:03.927Z,17.10
2022-12-03T08:58:37.977Z,16.17
2022-12-03T09:01:39.037Z,16.00
2022-12-03T09:04:28.302Z,16.27
2022-12-03T09:06:56.366Z,17.57
2022-12-03T09:09:25.125Z,17.17
2022-12-03T09:11:53.863Z,15.27
2022-12-03T09:14:22.736Z,17.47
2022-12-03T09:16:55.704Z,16.00
2022-12-03T09:19:24.645Z,14.03
2022-12-03T09:21:52.647Z,16.50
2022-12-03T09:24:20.629Z,19.40
2022-12-03T09:26:48.500Z,18.10
2022-12-03T09:29:16.656Z,16.10
2022-12-03T09:31:44.566Z,19.03
2022-12-03T09:34:13.969Z,16.63
2022-12-03T09:36:41.881Z,14.70
2022-12-03T09:39:09.784Z,20.80
2022-12-03T09:41:37.859Z,17.40
2022-12-03T09:44:08.656Z,14.37
2022-12-03T09:46:39.750Z,16.93
2022-12-03T09:49:15.338Z,16.03
2022-12-03T09:51:46.182Z,18.30
2022-12-03T09:54:24.472Z,16.17
2022-12-03T09:56:53.325Z,15.07
2022-12-03T09:59:23.181Z,14.67
2022-12-03T10:01:51.197Z,17.93
2022-12-03T10:04:19.821Z,18.63
2022-12-03T10:06:49.180Z,17.90
2022-12-03T10:09:24.550Z,14.27
2022-12-03T10:11:52.603Z,17.33
2022-12-03T10:14:20.902Z,17.20
2022-12-03T10:16:49.296Z,13.50
2022-12-03T10:19:22.211Z,18.77
2022-12-03T10:21:51.676Z,19.07
2022-12-03T10:24:26.477Z,17.17
2022-12-03T10:26:56.527Z,20.10
2022-12-03T10:29:32.867Z,16.97
2022-12-03T10:32:04.380Z,16.10
2022-12-03T10:34:34.496Z,16.13
2022-12-03T10:37:15.368Z,17.20
2022-12-03T10:39:58.130Z,14.60
2022-12-03T10:42:27.483Z,17.27
2022-12-03T10:45:19.372Z,15.67
2022-12-03T10:48:06.897Z,14.50
2022-12-03T10:50:35.919Z,17.93
2022-12-03T10:53:06.027Z,13.47
2022-12-03T10:55:39.706Z,15.83
2022-12-03T10:58:09.973Z,17.50
2022-12-03T11:00:37.837Z,17.87
2022-12-03T11:03:17.144Z,19.83
2022-12-03T11:05:45.077Z,16.47
2022-12-03T11:08:19.715Z,18.23
2022-12-03T11:10:56.469Z,18.10
2022-12-03T11:13:45.713Z,17.23
2022-12-03T11:16:15.003Z,18.67
2022-12-03T11:19:03.150Z,17.90
2022-12-03T11:21:31.441Z,17.87
2022-12-03T11:24:22.120Z,19.03
2022-12-03T11:27:26.578Z,16.73
2022-12-03T11:30:03.459Z,17.43
2022-12-03T11:33:04.211Z,17.50
2022-12-03T11:36:05.428Z,17.67
2022-12-03T11:38:54.704Z,13.30
2022-12-03T11:41:34.828Z,17.77
2022-12-03T11:44:31.205Z,16.07
2022-12-03T11:47:02.116Z,16.10
2022-12-03T11:49:36.601Z,18.20
2022-12-03T11:52:19.759Z,17.60
2022-12-03T11:54:50.964Z,17.23
2022-12-03T11:57:29.284Z,18.43
2022-12-03T12:00:02.338Z,19.90
2022-12-03T12:02:30.282Z,20.10
2022-12-03T12:05:28.629Z,20.93
2022-12-03T12:07:57.817Z,19.33
2022-12-03T12:10:39.428Z,19.57
2022-12-03T12:13:25.857Z,19.70
2022-12-03T12:15:54.296Z,19.00
2022-12-03T12:18:39.098Z,19.53
2022-12-03T12:21:44.121Z,25.63
2022-12-03T12:24:35.963Z,24.13
2022-12-03T12:27:07.448Z,21.00
2022-12-03T12:29:37.565Z,25.00
2022-12-03T12:32:15.070Z,21.13
2022-12-03T12:34:46.162Z,20.53
2022-12-03T12:37:18.530Z,23.87
2022-12-03T12:39:46.455Z,22.07
2022-12-03T12:42:29.926Z,20.37
2022-12-03T12:45:02.605Z,22.80
2022-12-03T12:47:31.633Z,19.70
2022-12-03T12:50:00.006Z,21.20
2022-12-03T12:52:28.742Z,20.00
2022-12-03T12:55:00.218Z,24.07
2022-12-03T12:57:31.076Z,23.47
2022-12-03T13:00:00.292Z,27.17
2022-12-03T13:02:42.006Z,21.07
2022-12-03T13:05:12.647Z,20.30
2022-12-03T13:07:43.202Z,22.97
2022-12-03T13:10:36.662Z,24.60
2022-12-03T13:13:23.278Z,24.97
2022-12-03T13:16:06.509Z,28.67
2022-12-03T13:18:44.043Z,24.40
2022-12-03T13:21:28.126Z,25.50
2022-12-03T13:23:58.167Z,21.10
2022-12-03T13:26:36.448Z,22.37
2022-12-03T13:29:13.697Z,25.33
2022-12-03T13:31:49.351Z,22.53
2022-12-03T13:34:20.675Z,23.33
2022-12-03T13:36:55.478Z,23.33
2022-12-03T13:39:30.333Z,24.93
2022-12-03T13:42:16.663Z,24.57
2022-12-03T13:44:48.118Z,21.60
2022-12-03T13:47:21.697Z,24.37
2022-12-03T13:49:53.602Z,25.10
2022-12-03T13:52:24.125Z,29.30
2022-12-03T13:54:53.827Z,27.80
2022-12-03T13:57:21.922Z,24.37
2022-12-03T13:59:49.861Z,25.13
2022-12-03T14:02:19.128Z,28.00
2022-12-03T14:04:47.013Z,24.20
2022-12-03T14:07:14.851Z,26.37
2022-12-03T14:09:42.730Z,23.80
2022-12-03T14:12:33.418Z,21.37
2022-12-03T14:15:01.656Z,25.70
2022-12-03T14:17:31.784Z,23.50
2022-12-03T14:20:00.962Z,21.67
2022-12-03T14:22:29.185Z,22.23
2022-12-03T14:24:58.261Z,22.10
2022-12-03T14:27:26.176Z,25.67
2022-12-03T14:29:54.417Z,24.53
2022-12-03T14:32:22.495Z,26.07
2022-12-03T14:34:51.787Z,25.17
2022-12-03T14:37:19.885Z,24.93
2022-12-03T14:39:47.788Z,26.40
2022-12-03T14:42:16.528Z,21.97
2022-12-03T14:44:46.657Z,21.10
2022-12-03T14:47:17.037Z,21.47
2022-12-03T14:49:45.092Z,24.13
2022-12-03T14:52:14.307Z,23.07
2022-12-03T14:54:43.109Z,23.00
2022-12-03T14:57:12.480Z,24.07
2022-12-03T14:59:40.729Z,19.37
2022-12-03T15:02:09.636Z,25.73
2022-12-03T15:04:37.770Z,23.43
2022-12-03T15:07:05.685Z,26.63
2022-12-03T15:09:35.217Z,25.50
2022-12-03T15:12:03.094Z,26.00
2022-12-03T15:14:31.049Z,22.70
2022-12-03T15:16:59.124Z,27.60
2022-12-03T15:19:27.125Z,26.33
2022-12-03T15:21:54.997Z,27.73
2022-12-03T15:24:22.921Z,30.00
2022-12-03T15:26:52.288Z,31.53
2022-12-03T15:29:20.245Z,25.40
2022-12-03T15:31:48.307Z,28.00
2022-12-03T15:34:22.133Z,27.07
2022-12-03T15:36:50.885Z,25.87
2022-12-03T15:39:18.838Z,25.73
2022-12-03T15:41:46.734Z,30.30
2022-12-03T15:44:15.973Z,36.50
2022-12-03T15:46:43.925Z,25.40
2022-12-03T15:49:11.904Z,27.53
2022-12-03T15:51:39.774Z,29.00
2022-12-03T15:54:07.673Z,26.30
2022-12-03T15:56:37.591Z,23.63
2022-12-03T15:59:05.763Z,23.10
2022-12-03T16:01:35.086Z,30.30
2022-12-03T16:04:03.014Z,23.67
2022-12-03T16:06:30.877Z,22.13
2022-12-03T16:08:58.766Z,23.87
2022-12-03T16:11:26.690Z,25.10
2022-12-03T16:13:54.649Z,24.20
2022-12-03T16:16:22.600Z,26.37
2022-12-03T16:18:51.913Z,24.90
2022-12-03T16:21:25.087Z,27.17
2022-12-03T16:23:54.589Z,27.17
2022-12-03T16:26:22.851Z,21.40
2022-12-03T16:28:50.769Z,25.00
2022-12-03T16:31:19.083Z,30.57
2022-12-03T16:33:47.103Z,28.53
2022-12-03T16:36:16.405Z,28.40
2022-12-03T16:38:44.281Z,26.60
2022-12-03T16:41:12.157Z,26.10
2022-12-03T16:43:40.026Z,26.80
2022-12-03T16:46:21.378Z,24.90
2022-12-03T16:48:49.615Z,30.23
2022-12-03T16:51:20.188Z,32.83
2022-12-03T16:53:48.356Z,32.40
2022-12-03T16:56:16.495Z,30.90
2022-12-03T16:58:44.649Z,31.80
2022-12-03T17:01:12.815Z,31.67
2022-12-03T17:03:40.725Z,32.77
2022-12-03T17:06:08.760Z,29.63
2022-12-03T17:08:37.995Z,32.47
2022-12-03T17:11:06.106Z,29.90
2022-12-03T17:13:34.060Z,33.50
2022-12-03T17:16:02.051Z,31.70
2022-12-03T17:18:30.164Z,31.80
2022-12-03T17:20:58.026Z,32.50
2022-12-03T17:23:26.093Z,32.00
2022-12-03T17:25:55.303Z,31.73
2022-12-03T17:28:23.179Z,33.23
2022-12-03T17:30:51.136Z,32.87
2022-12-03T17:33:19.069Z,29.97
2022-12-03T17:35:46.946Z,29.03
2022-12-03T17:38:14.795Z,30.53
2022-12-03T17:40:42.677Z,29.07
2022-12-03T17:43:11.968Z,30.80
2022-12-03T17:45:39.827Z,28.20
2022-12-03T17:48:08.313Z,28.67
2022-12-03T17:50:36.602Z,33.00
2022-12-03T17:53:07.844Z,30.50
2022-12-03T17:55:41.149Z,34.80
2022-12-03T17:58:14.263Z,35.00
2022-12-03T18:00:42.428Z,31.00
2022-12-03T18:03:10.476Z,28.40
2022-12-03T18:05:38.498Z,27.13
2022-12-03T18:08:07.246Z,28.60
2022-12-03T18:10:35.217Z,30.53
2022-12-03T18:13:03.152Z,32.10
2022-12-03T18:15:33.254Z,32.70
2022-12-03T18:18:01.121Z,29.43
2022-12-03T18:20:29.292Z,31.13
2022-12-03T18:22:58.468Z,30.60
2022-12-03T18:25:26.985Z,27.90
2022-12-03T18:27:54.833Z,33.10
2022-12-03T18:30:23.456Z,29.23
2022-12-03T18:32:52.748Z,33.47
2022-12-03T18:35:20.724Z,38.50
2022-12-03T18:37:50.949Z,32.40
2022-12-03T18:40:20.816Z,31.60
2022-12-03T18:42:49.544Z,31.73
2022-12-03T18:45:17.565Z,34.43
2022-12-03T18:47:46.021Z,30.27
2022-12-03T18:50:15.512Z,32.47
2022-12-03T18:52:43.478Z,30.13
2022-12-03T18:55:15.835Z,28.50
2022-12-03T18:57:43.690Z,29.63
2022-12-03T19:00:13.876Z,29.77
2022-12-03T19:05:31.972Z,25.17
2022-12-03T19:08:00.342Z,27.07
2022-12-03T19:10:28.377Z,29.03
2022-12-03T19:12:56.343Z,30.93
2022-12-03T19:15:24.304Z,28.90
2022-12-03T19:17:52.555Z,32.50
2022-12-03T19:20:20.571Z,38.27
2022-12-03T19:22:49.825Z,27.73
2022-12-03T19:25:17.823Z,34.17
2022-12-03T19:27:45.762Z,34.27
2022-12-03T19:30:14.280Z,30.43
2022-12-03T19:32:42.117Z,28.50
2022-12-03T19:35:11.359Z,29.70
2022-12-03T19:37:39.439Z,27.20
2022-12-03T19:40:11.272Z,25.63
2022-12-03T19:42:39.530Z,34.20
2022-12-03T19:45:08.579Z,28.40
2022-12-03T19:47:36.568Z,28.50
2022-12-03T19:50:05.135Z,26.70
2022-12-03T19:52:36.214Z,27.00
2022-12-03T19:55:04.468Z,27.10
2022-12-03T19:57:33.745Z,26.90
2022-12-03T20:00:01.892Z,35.13
2022-12-03T20:02:29.975Z,32.80
2022-12-03T20:04:57.972Z,29.53
2022-12-03T20:07:25.983Z,30.50
2022-12-03T20:09:54.308Z,29.60
2022-12-03T20:12:22.388Z,24.17
2022-12-03T20:14:51.687Z,28.13
2022-12-03T20:17:19.591Z,24.87
2022-12-03T20:19:47.665Z,23.30
2022-12-03T20:22:15.551Z,25.20
2022-12-03T20:24:43.651Z,27.20
2022-12-03T20:27:11.545Z,25.20
2022-12-03T20:29:39.510Z,28.50
2022-12-03T20:32:08.841Z,26.17
2022-12-03T20:34:36.816Z,28.07
2022-12-03T20:37:04.717Z,29.03
2022-12-03T20:39:32.683Z,31.33
2022-12-03T20:42:00.537Z,30.90
2022-12-03T20:44:28.453Z,35.00
2022-12-03T20:46:56.357Z,26.70
2022-12-03T20:49:25.550Z,28.43
2022-12-03T20:51:53.462Z,33.43
2022-12-03T20:54:21.393Z,34.60
2022-12-03T20:56:49.644Z,31.57
2022-12-03T20:59:18.533Z,32.13
2022-12-03T21:01:46.694Z,30.57
2022-12-03T21:04:16.071Z,29.80
2022-12-03T21:06:45.955Z,29.77
2022-12-03T21:09:14.320Z,30.63
2022-12-03T21:11:42.660Z,28.47
2022-12-03T21:14:11.916Z,24.10
2022-12-03T21:19:30.024Z,27.43
2022-12-03T21:21:59.231Z,30.90
2022-12-03T21:24:27.170Z,29.33
2022-12-03T21:26:55.065Z,31.13
2022-12-03T21:29:23.077Z,23.17
2022-12-03T21:31:51.123Z,22.73
2022-12-03T21:34:18.994Z,21.23
2022-12-03T21:36:46.998Z,19.87
2022-12-03T21:39:16.304Z,19.60
2022-12-03T21:42:33.458Z,18.23
2022-12-03T21:44:32.271Z,22.33
2022-12-03T21:47:10.839Z,18.47
2022-12-03T21:49:42.433Z,20.03
2022-12-03T21:52:10.482Z,24.47
2022-12-03T21:54:39.744Z,19.33
2022-12-03T21:57:07.676Z,23.87
2022-12-03T21:59:35.591Z,20.80
2022-12-03T22:02:03.727Z,21.50
2022-12-03T22:04:31.787Z,21.23
2022-12-03T22:06:59.681Z,23.20
2022-12-03T22:09:27.637Z,20.10
2022-12-03T22:11:59.234Z,24.17
2022-12-03T22:14:27.251Z,24.57
2022-12-03T22:16:55.170Z,24.50
2022-12-03T22:19:23.910Z,23.03
2022-12-03T22:21:51.870Z,21.13
2022-12-03T22:24:20.064Z,20.67
2022-12-03T22:26:48.079Z,18.97
2022-12-03T22:29:17.365Z,20.43
2022-12-03T22:31:45.281Z,19.60
2022-12-03T22:34:13.195Z,17.90
2022-12-03T22:36:41.079Z,20.90
2022-12-03T22:39:09.108Z,19.93
2022-12-03T22:41:37.004Z,24.80
2022-12-03T22:44:04.914Z,27.23
2022-12-03T22:46:34.233Z,29.77
2022-12-03T22:49:07.143Z,31.73
2022-12-03T22:51:36.192Z,36.63
2022-12-03T22:54:04.279Z,36.70
2022-12-03T22:56:32.411Z,33.83
2022-12-03T22:59:00.385Z,32.50
2022-12-03T23:01:30.865Z,38.13
2022-12-03T23:04:00.289Z,32.87
2022-12-03T23:06:29.171Z,36.87
2022-12-03T23:08:57.624Z,35.73
2022-12-03T23:11:25.741Z,37.50
2022-12-03T23:13:53.752Z,35.60
2022-12-03T23:16:26.109Z,42.43
2022-12-03T23:18:54.543Z,34.60
2022-12-03T23:21:29.720Z,38.73
2022-12-03T23:23:58.340Z,31.97
2022-12-03T23:26:26.476Z,34.10
2022-12-03T23:28:54.716Z,32.60
2022-12-03T23:31:24.853Z,36.57
2022-12-03T23:33:53.756Z,33.07
2022-12-03T23:36:24.394Z,35.03
2022-12-03T23:38:52.342Z,33.77
2022-12-03T23:41:22.313Z,32.77
2022-12-03T23:43:50.468Z,38.20
2022-12-03T23:46:20.168Z,36.57
2022-12-03T23:48:48.180Z,37.00
2022-12-03T23:51:18.921Z,32.27
2022-12-03T23:53:48.416Z,31.50
2022-12-03T23:56:17.955Z,31.17
2022-12-03T23:58:46.820Z,31.87
